createdAt,value
2022-12-25T00:01:43.203Z,98.95
2022-12-25T00:06:45.989Z,98.87
2022-12-25T00:11:48.798Z,98.56
2022-12-25T00:16:52.369Z,98.70
2022-12-25T00:21:55.079Z,98.55
2022-12-25T00:26:57.839Z,98.70
2022-12-25T00:32:01.181Z,98.62
2022-12-25T00:37:04.051Z,98.92
2022-12-25T00:42:18.717Z,99.15
2022-12-25T00:47:21.974Z,98.84
2022-12-25T00:52:24.901Z,98.98
2022-12-25T00:57:27.766Z,98.64
2022-12-25T01:02:30.635Z,98.84
2022-12-25T01:07:33.717Z,99.16
2022-12-25T01:12:40.108Z,99.21
2022-12-25T01:17:44.442Z,99.16
2022-12-25T01:22:47.169Z,98.93
2022-12-25T01:27:50.316Z,98.79
2022-12-25T01:32:53.447Z,98.87
2022-12-25T01:37:56.214Z,98.86
2022-12-25T01:42:58.985Z,99.10
2022-12-25T01:48:06.364Z,99.25
2022-12-25T01:53:09.191Z,99.13
2022-12-25T01:58:12.071Z,98.92
2022-12-25T02:03:14.967Z,99.01
2022-12-25T02:08:20.700Z,98.91
2022-12-25T02:13:23.426Z,98.98
2022-12-25T02:18:56.870Z,98.87
2022-12-25T02:24:37.064Z,98.99
2022-12-25T02:30:10.403Z,99.09
2022-12-25T02:35:28.504Z,99.00
2022-12-25T02:40:57.634Z,99.28
2022-12-25T02:46:23.403Z,99.10
2022-12-25T02:51:48.399Z,99.44
2022-12-25T02:57:09.957Z,99.17
2022-12-25T03:02:33.101Z,99.44
2022-12-25T03:07:37.686Z,99.12
2022-12-25T03:12:54.074Z,99.44
2022-12-25T03:17:59.455Z,98.87
2022-12-25T03:23:23.352Z,99.52
2022-12-25T03:28:27.736Z,99.71
2022-12-25T03:34:23.985Z,99.33
2022-12-25T03:39:49.540Z,99.56
2022-12-25T03:45:58.257Z,99.51
2022-12-25T03:51:25.127Z,99.60
2022-12-25T03:56:47.076Z,99.59
2022-12-25T04:02:09.398Z,99.91
2022-12-25T04:07:30.774Z,99.73
2022-12-25T04:12:52.220Z,99.81
2022-12-25T04:18:14.030Z,99.74
2022-12-25T04:23:35.368Z,99.89
2022-12-25T04:28:56.709Z,99.91
2022-12-25T04:34:18.295Z,99.91
2022-12-25T04:39:21.026Z,100.00
2022-12-25T04:44:23.762Z,100.00
2022-12-25T04:49:28.455Z,100.00
2022-12-25T04:54:31.233Z,99.99
2022-12-25T04:59:33.998Z,99.98
2022-12-25T05:04:36.773Z,100.00
2022-12-25T05:09:42.423Z,99.97
2022-12-25T05:14:45.210Z,99.95
2022-12-25T05:19:48.027Z,100.00
2022-12-25T05:24:50.822Z,100.00
2022-12-25T05:29:53.615Z,100.00
2022-12-25T05:34:56.310Z,99.96
2022-12-25T05:39:59.214Z,99.97
2022-12-25T05:45:02.139Z,99.93
2022-12-25T05:50:05.728Z,100.00
2022-12-25T05:55:08.763Z,100.00
2022-12-25T06:00:12.189Z,99.98
2022-12-25T06:05:15.464Z,99.95
2022-12-25T06:10:18.736Z,100.00
2022-12-25T06:15:21.630Z,100.00
2022-12-25T06:20:24.392Z,100.00
2022-12-25T06:25:27.180Z,100.00
2022-12-25T06:30:30.018Z,100.00
2022-12-25T06:35:32.999Z,99.97
2022-12-25T06:40:35.743Z,99.95
2022-12-25T06:45:38.718Z,100.00
2022-12-25T06:50:44.696Z,100.00
2022-12-25T06:55:47.689Z,100.00
2022-12-25T07:00:50.537Z,100.00
2022-12-25T07:05:53.343Z,100.00
2022-12-25T07:10:56.631Z,100.00
2022-12-25T07:16:00.448Z,100.00
2022-12-25T07:21:11.720Z,100.00
2022-12-25T07:26:15.037Z,100.00
2022-12-25T07:31:18.215Z,100.00
2022-12-25T07:36:21.153Z,100.00
2022-12-25T07:41:23.999Z,100.00
2022-12-25T07:46:28.615Z,100.00
2022-12-25T07:51:31.508Z,100.00
2022-12-25T07:56:34.240Z,100.00
2022-12-25T08:01:37.224Z,100.00
2022-12-25T08:06:40.793Z,100.00
2022-12-25T08:11:47.400Z,100.00
2022-12-25T08:16:50.281Z,100.00
2022-12-25T08:21:54.409Z,100.00
2022-12-25T08:26:57.145Z,100.00
2022-12-25T08:32:00.845Z,100.00
2022-12-25T08:37:03.698Z,100.00
2022-12-25T08:42:06.447Z,100.00
2022-12-25T08:47:09.937Z,100.00
2022-12-25T08:52:12.733Z,100.00
2022-12-25T08:57:15.526Z,100.00
2022-12-25T09:02:18.719Z,100.00
2022-12-25T09:07:21.694Z,100.00
2022-12-25T09:12:24.399Z,100.00
2022-12-25T09:17:29.605Z,100.00
2022-12-25T09:22:32.350Z,100.00
2022-12-25T09:27:35.131Z,100.00
2022-12-25T09:32:40.366Z,100.00
2022-12-25T09:37:45.820Z,99.97
2022-12-25T09:42:48.803Z,99.98
2022-12-25T09:47:51.567Z,100.00
2022-12-25T09:53:07.445Z,100.00
2022-12-25T09:58:12.822Z,100.00
2022-12-25T10:03:38.343Z,100.00
2022-12-25T10:09:35.863Z,100.00
2022-12-25T10:15:17.080Z,100.00
2022-12-25T10:20:42.093Z,100.00
2022-12-25T10:25:47.423Z,100.00
2022-12-25T10:31:19.912Z,100.00
2022-12-25T10:36:26.170Z,100.00
2022-12-25T10:41:44.922Z,100.00
2022-12-25T10:46:49.400Z,100.00
2022-12-25T10:51:52.235Z,100.00
2022-12-25T10:57:01.206Z,100.00
2022-12-25T11:02:31.463Z,99.92
2022-12-25T11:07:46.695Z,99.91
2022-12-25T11:12:49.635Z,99.82
2022-12-25T11:17:52.480Z,99.11
2022-12-25T11:22:56.091Z,99.03
2022-12-25T11:28:04.077Z,98.59
2022-12-25T11:33:10.978Z,98.71
2022-12-25T11:38:13.710Z,99.14
2022-12-25T11:43:23.743Z,99.44
2022-12-25T11:48:31.820Z,99.15
2022-12-25T11:53:59.931Z,98.85
2022-12-25T11:59:20.779Z,98.57
2022-12-25T12:04:38.495Z,98.36
2022-12-25T12:10:15.190Z,98.39
2022-12-25T12:15:30.951Z,98.79
2022-12-25T12:20:35.039Z,98.66
2022-12-25T12:25:41.457Z,98.36
2022-12-25T12:30:44.320Z,98.24
2022-12-25T12:35:47.156Z,98.34
2022-12-25T12:41:04.183Z,98.32
2022-12-25T12:46:24.518Z,98.32
2022-12-25T12:51:33.147Z,97.98
2022-12-25T12:56:35.979Z,98.20
2022-12-25T13:01:47.893Z,98.11
2022-12-25T13:07:32.362Z,98.02
2022-12-25T13:12:35.206Z,97.76
2022-12-25T13:17:38.026Z,97.58
2022-12-25T13:22:40.877Z,97.24
2022-12-25T13:27:45.755Z,97.58
2022-12-25T13:32:49.406Z,97.43
2022-12-25T13:37:52.875Z,97.16
2022-12-25T13:42:59.733Z,97.24
2022-12-25T13:48:16.063Z,97.49
2022-12-25T13:53:18.857Z,97.73
2022-12-25T13:58:30.759Z,97.63
2022-12-25T14:03:39.492Z,97.52
2022-12-25T14:08:42.422Z,97.87
2022-12-25T14:13:45.154Z,97.99
2022-12-25T14:18:56.847Z,98.09
2022-12-25T14:23:59.561Z,97.88
2022-12-25T14:29:17.664Z,97.86
2022-12-25T14:34:23.094Z,97.97
2022-12-25T14:39:32.137Z,97.80
2022-12-25T14:44:38.977Z,97.63
2022-12-25T14:49:41.725Z,97.88
2022-12-25T14:54:54.426Z,97.71
2022-12-25T15:00:35.466Z,97.71
2022-12-25T15:05:39.176Z,97.92
2022-12-25T15:16:17.092Z,97.98
2022-12-25T15:21:28.407Z,97.91
2022-12-25T15:26:33.395Z,97.39
2022-12-25T15:31:37.880Z,97.81
2022-12-25T15:36:40.714Z,97.96
2022-12-25T15:42:02.382Z,97.92
2022-12-25T15:47:05.529Z,97.76
2022-12-25T15:52:10.734Z,98.15
2022-12-25T15:57:18.358Z,97.81
2022-12-25T16:02:21.444Z,97.91
2022-12-25T16:07:25.926Z,97.84
2022-12-25T16:12:28.715Z,97.72
2022-12-25T16:17:31.409Z,97.84
2022-12-25T16:22:39.893Z,97.83
2022-12-25T16:27:43.610Z,97.73
2022-12-25T16:32:49.242Z,97.91
2022-12-25T16:37:52.003Z,97.61
2022-12-25T16:42:55.704Z,97.72
2022-12-25T16:47:58.491Z,98.01
2022-12-25T16:53:01.280Z,97.80
2022-12-25T16:58:05.232Z,97.81
2022-12-25T17:03:08.110Z,98.10
2022-12-25T17:08:11.017Z,98.16
2022-12-25T17:13:13.756Z,97.88
2022-12-25T17:18:17.420Z,98.07
2022-12-25T17:23:20.757Z,98.11
2022-12-25T17:28:23.569Z,98.11
2022-12-25T17:33:26.400Z,98.11
2022-12-25T17:38:32.630Z,98.04
2022-12-25T17:43:37.275Z,98.08
2022-12-25T17:48:40.370Z,98.17
2022-12-25T17:53:45.915Z,97.77
2022-12-25T17:58:53.325Z,97.81
2022-12-25T18:03:56.166Z,97.57
2022-12-25T18:09:00.241Z,97.85
2022-12-25T18:14:04.021Z,97.68
2022-12-25T18:19:06.943Z,97.66
2022-12-25T18:24:09.830Z,97.67
2022-12-25T18:29:12.675Z,97.57
2022-12-25T18:34:15.737Z,97.79
2022-12-25T18:39:18.482Z,97.53
2022-12-25T18:44:21.291Z,97.65
2022-12-25T18:49:24.163Z,97.84
2022-12-25T18:54:28.042Z,97.93
2022-12-25T18:59:31.160Z,97.74
2022-12-25T19:04:33.907Z,97.85
2022-12-25T19:09:36.724Z,98.02
2022-12-25T19:14:47.218Z,98.01
2022-12-25T19:19:51.044Z,98.07
2022-12-25T19:24:53.867Z,98.53
2022-12-25T19:29:56.707Z,98.51
2022-12-25T19:35:04.381Z,98.20
2022-12-25T19:40:27.038Z,98.07
2022-12-25T19:45:29.873Z,98.01
2022-12-25T19:50:32.744Z,98.25
2022-12-25T19:55:36.448Z,98.18
2022-12-25T20:00:41.829Z,97.80
2022-12-25T20:05:45.517Z,98.04
2022-12-25T20:10:48.333Z,97.98
2022-12-25T20:15:51.311Z,98.26
2022-12-25T20:21:11.554Z,98.40
2022-12-25T20:26:15.174Z,98.26
2022-12-25T20:31:28.022Z,98.48
2022-12-25T20:36:36.356Z,98.27
2022-12-25T20:41:40.739Z,98.32
2022-12-25T20:46:44.326Z,98.28
2022-12-25T20:51:47.160Z,98.25
2022-12-25T20:56:49.891Z,98.17
2022-12-25T21:01:54.354Z,98.14
2022-12-25T21:06:57.276Z,98.34
2022-12-25T21:12:00.198Z,98.28
2022-12-25T21:17:03.099Z,98.43
2022-12-25T21:22:06.088Z,98.36
2022-12-25T21:27:09.087Z,98.23
2022-12-25T21:32:31.008Z,98.25
2022-12-25T21:37:33.772Z,98.22
2022-12-25T21:42:36.663Z,98.48
2022-12-25T21:48:02.294Z,98.29
2022-12-25T21:53:04.697Z,98.31
2022-12-25T21:58:07.452Z,98.80
2022-12-25T22:03:10.291Z,98.48
2022-12-25T22:08:13.119Z,98.42
2022-12-25T22:13:34.726Z,98.48
2022-12-25T22:18:56.376Z,98.61
2022-12-25T22:23:59.232Z,98.35
2022-12-25T22:29:02.833Z,98.35
2022-12-25T22:34:06.552Z,98.68
2022-12-25T22:39:09.371Z,98.56
2022-12-25T22:44:17.854Z,98.56
2022-12-25T22:49:21.717Z,98.24
2022-12-25T22:54:24.867Z,98.38
2022-12-25T22:59:27.632Z,98.76
2022-12-25T23:04:30.745Z,98.45
2022-12-25T23:09:33.558Z,98.60
2022-12-25T23:14:39.222Z,98.38
2022-12-25T23:20:00.540Z,98.25
2022-12-25T23:25:22.455Z,98.35
2022-12-25T23:30:25.267Z,98.20
2022-12-25T23:35:28.925Z,98.62
2022-12-25T23:40:31.889Z,98.26
2022-12-25T23:45:34.700Z,98.39
2022-12-25T23:50:37.605Z,98.29
2022-12-25T23:55:42.581Z,98.66
